FSIA/SEZ METAR and TAF weather

Enter ICAO airport designator
Station Type Date Time Source
FSIA METAR 2020/09/30 16:42 UTC NOAA

FSIA 301642Z VRB02KT 5000 TSRA FEW007 FEW014CB OVC016 24/24 Q1011 RETS BECMG 8000


Station Type Date Time Source
FSIA Decoded METAR 2020/09/30 16:42 UTC NOAA

Seychelles Inter-National Airport, Seychelles (FSIA) 04-40S 055-31E 3M
Sep 30, 2020 - 12:42 PM EDT / 2020.09.30 1642 UTC
Wind: Variable at 2 MPH (2 KT):0
Visibility: 3 mile(s):0
Sky conditions: overcast
Weather: rain with thunder; Cumulonimbus clouds observed
Temperature: 75 F (24 C)
Dew Point: 75 F (24 C)
Relative Humidity: 100%
Pressure (altimeter): 29.85 in. Hg (1011 hPa)
ob: FSIA 301642Z VRB02KT 5000 TSRA FEW007 FEW014CB OVC016 24/24 Q1011 RETS BECMG 8000
cycle: 16

Station Type Date Time Source
FSIA TAF 2020/09/30 12:12 UTC NOAA

TAF FSIA 301103Z 3012/0112 14015KT 9999 FEW010 SCT020
TEMPO 3014/3018 8000 -SHRA FEW008 FEW016CB BKN018
TEMPO 3022/0104 8000 SHRA FEW008 FEW015CB BKN016

Example: see airport list